sensor_id;sensor_type;location;lat;lon;timestamp;P1;durP1;ratioP1;P2;durP2;ratioP2
4957;SDS011;2494;51.872;9.688;2023-09-19T00:01:43;1.60;;;1.50;;
4957;SDS011;2494;51.872;9.688;2023-09-19T00:04:30;3.93;;;1.73;;
4957;SDS011;2494;51.872;9.688;2023-09-19T00:07:16;1.87;;;1.53;;
4957;SDS011;2494;51.872;9.688;2023-09-19T00:10:01;1.50;;;1.40;;
4957;SDS011;2494;51.872;9.688;2023-09-19T00:12:46;2.37;;;1.60;;
4957;SDS011;2494;51.872;9.688;2023-09-19T00:15:35;3.83;;;1.80;;
4957;SDS011;2494;51.872;9.688;2023-09-19T00:18:22;2.43;;;1.60;;
4957;SDS011;2494;51.872;9.688;2023-09-19T00:21:11;1.73;;;1.13;;
4957;SDS011;2494;51.872;9.688;2023-09-19T00:23:56;2.60;;;1.83;;
4957;SDS011;2494;51.872;9.688;2023-09-19T00:26:41;2.60;;;1.60;;
4957;SDS011;2494;51.872;9.688;2023-09-19T00:29:27;2.53;;;1.40;;
4957;SDS011;2494;51.872;9.688;2023-09-19T00:32:13;1.70;;;1.40;;
4957;SDS011;2494;51.872;9.688;2023-09-19T00:35:00;1.67;;;1.40;;
4957;SDS011;2494;51.872;9.688;2023-09-19T00:37:44;2.50;;;1.77;;
4957;SDS011;2494;51.872;9.688;2023-09-19T00:40:29;1.50;;;1.40;;
4957;SDS011;2494;51.872;9.688;2023-09-19T00:43:16;2.23;;;1.40;;
4957;SDS011;2494;51.872;9.688;2023-09-19T00:46:01;1.80;;;1.67;;
4957;SDS011;2494;51.872;9.688;2023-09-19T00:48:48;3.03;;;1.80;;
4957;SDS011;2494;51.872;9.688;2023-09-19T00:51:34;2.53;;;1.67;;
4957;SDS011;2494;51.872;9.688;2023-09-19T00:54:20;3.00;;;1.57;;
4957;SDS011;2494;51.872;9.688;2023-09-19T00:57:05;2.80;;;1.63;;
4957;SDS011;2494;51.872;9.688;2023-09-19T00:59:51;4.20;;;2.10;;
4957;SDS011;2494;51.872;9.688;2023-09-19T01:02:38;1.80;;;1.70;;
4957;SDS011;2494;51.872;9.688;2023-09-19T01:05:23;3.60;;;2.00;;
4957;SDS011;2494;51.872;9.688;2023-09-19T01:08:10;3.43;;;1.90;;
4957;SDS011;2494;51.872;9.688;2023-09-19T01:11:10;1.93;;;1.73;;
4957;SDS011;2494;51.872;9.688;2023-09-19T01:13:57;3.37;;;2.40;;
4957;SDS011;2494;51.872;9.688;2023-09-19T01:16:49;6.03;;;2.40;;
4957;SDS011;2494;51.872;9.688;2023-09-19T01:22:46;4.40;;;2.13;;
4957;SDS011;2494;51.872;9.688;2023-09-19T01:28:45;2.23;;;2.03;;
4957;SDS011;2494;51.872;9.688;2023-09-19T01:31:39;2.20;;;2.10;;
4957;SDS011;2494;51.872;9.688;2023-09-19T01:34:25;3.13;;;1.83;;
4957;SDS011;2494;51.872;9.688;2023-09-19T01:37:10;4.40;;;2.50;;
4957;SDS011;2494;51.872;9.688;2023-09-19T01:39:56;2.57;;;1.90;;
4957;SDS011;2494;51.872;9.688;2023-09-19T01:42:43;2.57;;;2.37;;
4957;SDS011;2494;51.872;9.688;2023-09-19T01:45:31;3.13;;;2.40;;
4957;SDS011;2494;51.872;9.688;2023-09-19T01:48:23;2.20;;;2.00;;
4957;SDS011;2494;51.872;9.688;2023-09-19T01:51:10;2.50;;;2.23;;
4957;SDS011;2494;51.872;9.688;2023-09-19T01:53:59;2.93;;;2.63;;
4957;SDS011;2494;51.872;9.688;2023-09-19T01:56:48;3.90;;;2.60;;
4957;SDS011;2494;51.872;9.688;2023-09-19T01:59:36;4.40;;;3.20;;
4957;SDS011;2494;51.872;9.688;2023-09-19T02:02:24;4.23;;;2.73;;
4957;SDS011;2494;51.872;9.688;2023-09-19T02:05:10;4.23;;;2.50;;
4957;SDS011;2494;51.872;9.688;2023-09-19T02:07:56;2.87;;;2.40;;
4957;SDS011;2494;51.872;9.688;2023-09-19T02:10:42;2.93;;;2.73;;
4957;SDS011;2494;51.872;9.688;2023-09-19T02:13:30;4.50;;;2.67;;
4957;SDS011;2494;51.872;9.688;2023-09-19T02:16:16;2.93;;;2.43;;
4957;SDS011;2494;51.872;9.688;2023-09-19T02:19:04;2.97;;;2.60;;
4957;SDS011;2494;51.872;9.688;2023-09-19T02:21:51;5.00;;;2.93;;
4957;SDS011;2494;51.872;9.688;2023-09-19T02:24:36;3.13;;;2.93;;
4957;SDS011;2494;51.872;9.688;2023-09-19T02:27:21;6.00;;;2.53;;
4957;SDS011;2494;51.872;9.688;2023-09-19T02:30:07;3.67;;;2.80;;
4957;SDS011;2494;51.872;9.688;2023-09-19T02:32:51;3.07;;;2.73;;
4957;SDS011;2494;51.872;9.688;2023-09-19T02:35:36;4.03;;;2.93;;
4957;SDS011;2494;51.872;9.688;2023-09-19T02:38:23;3.70;;;3.40;;
4957;SDS011;2494;51.872;9.688;2023-09-19T02:41:08;3.13;;;2.83;;
4957;SDS011;2494;51.872;9.688;2023-09-19T02:43:53;3.23;;;2.63;;
4957;SDS011;2494;51.872;9.688;2023-09-19T02:46:38;3.10;;;2.90;;
4957;SDS011;2494;51.872;9.688;2023-09-19T02:49:23;3.40;;;3.10;;
4957;SDS011;2494;51.872;9.688;2023-09-19T02:52:08;3.17;;;2.97;;
4957;SDS011;2494;51.872;9.688;2023-09-19T02:54:55;3.60;;;3.30;;
4957;SDS011;2494;51.872;9.688;2023-09-19T02:57:40;3.17;;;2.90;;
4957;SDS011;2494;51.872;9.688;2023-09-19T03:00:26;4.70;;;2.87;;
4957;SDS011;2494;51.872;9.688;2023-09-19T03:03:11;6.40;;;3.27;;
4957;SDS011;2494;51.872;9.688;2023-09-19T03:05:56;6.50;;;3.13;;
4957;SDS011;2494;51.872;9.688;2023-09-19T03:08:42;3.27;;;2.70;;
4957;SDS011;2494;51.872;9.688;2023-09-19T03:11:29;5.73;;;2.97;;
4957;SDS011;2494;51.872;9.688;2023-09-19T03:14:14;3.83;;;3.47;;
4957;SDS011;2494;51.872;9.688;2023-09-19T03:16:59;3.57;;;3.17;;
4957;SDS011;2494;51.872;9.688;2023-09-19T03:19:44;3.00;;;2.80;;
4957;SDS011;2494;51.872;9.688;2023-09-19T03:22:30;4.63;;;3.60;;
4957;SDS011;2494;51.872;9.688;2023-09-19T03:25:16;3.13;;;2.93;;
4957;SDS011;2494;51.872;9.688;2023-09-19T03:28:04;3.33;;;3.03;;
4957;SDS011;2494;51.872;9.688;2023-09-19T03:31:00;4.83;;;2.83;;
4957;SDS011;2494;51.872;9.688;2023-09-19T03:33:45;3.00;;;2.63;;
4957;SDS011;2494;51.872;9.688;2023-09-19T03:36:30;3.93;;;2.53;;
4957;SDS011;2494;51.872;9.688;2023-09-19T03:39:15;2.90;;;2.40;;
4957;SDS011;2494;51.872;9.688;2023-09-19T03:42:00;2.77;;;2.57;;
4957;SDS011;2494;51.872;9.688;2023-09-19T03:44:48;4.07;;;2.77;;
4957;SDS011;2494;51.872;9.688;2023-09-19T03:47:33;5.40;;;2.70;;
4957;SDS011;2494;51.872;9.688;2023-09-19T03:50:18;9.03;;;2.90;;
4957;SDS011;2494;51.872;9.688;2023-09-19T03:53:03;4.30;;;2.50;;
4957;SDS011;2494;51.872;9.688;2023-09-19T03:55:48;5.57;;;3.10;;
4957;SDS011;2494;51.872;9.688;2023-09-19T03:58:33;6.50;;;2.63;;
4957;SDS011;2494;51.872;9.688;2023-09-19T04:01:24;5.00;;;3.00;;
4957;SDS011;2494;51.872;9.688;2023-09-19T04:04:11;2.93;;;2.63;;
4957;SDS011;2494;51.872;9.688;2023-09-19T04:06:58;6.30;;;2.50;;
4957;SDS011;2494;51.872;9.688;2023-09-19T04:09:42;3.53;;;2.90;;
4957;SDS011;2494;51.872;9.688;2023-09-19T04:12:27;3.77;;;2.50;;
4957;SDS011;2494;51.872;9.688;2023-09-19T04:15:12;9.73;;;3.20;;
4957;SDS011;2494;51.872;9.688;2023-09-19T04:17:59;10.03;;;3.10;;
4957;SDS011;2494;51.872;9.688;2023-09-19T04:20:47;8.27;;;3.43;;
4957;SDS011;2494;51.872;9.688;2023-09-19T04:23:32;4.10;;;2.70;;
4957;SDS011;2494;51.872;9.688;2023-09-19T04:26:17;10.50;;;2.90;;
4957;SDS011;2494;51.872;9.688;2023-09-19T04:29:02;5.07;;;3.13;;
4957;SDS011;2494;51.872;9.688;2023-09-19T04:31:49;7.50;;;3.37;;
4957;SDS011;2494;51.872;9.688;2023-09-19T04:34:37;4.53;;;2.63;;
4957;SDS011;2494;51.872;9.688;2023-09-19T04:37:22;6.63;;;3.33;;
4957;SDS011;2494;51.872;9.688;2023-09-19T04:40:08;5.70;;;2.57;;
4957;SDS011;2494;51.872;9.688;2023-09-19T04:42:56;4.13;;;2.73;;
4957;SDS011;2494;51.872;9.688;2023-09-19T04:45:41;5.07;;;3.20;;
4957;SDS011;2494;51.872;9.688;2023-09-19T04:48:26;5.23;;;2.93;;
4957;SDS011;2494;51.872;9.688;2023-09-19T04:51:14;3.10;;;2.60;;
4957;SDS011;2494;51.872;9.688;2023-09-19T04:53:59;5.47;;;2.70;;
4957;SDS011;2494;51.872;9.688;2023-09-19T04:56:44;4.10;;;2.43;;
4957;SDS011;2494;51.872;9.688;2023-09-19T04:59:29;4.47;;;2.80;;
4957;SDS011;2494;51.872;9.688;2023-09-19T05:02:14;2.90;;;2.20;;
4957;SDS011;2494;51.872;9.688;2023-09-19T05:04:59;8.93;;;2.40;;
4957;SDS011;2494;51.872;9.688;2023-09-19T05:07:46;6.87;;;2.70;;
4957;SDS011;2494;51.872;9.688;2023-09-19T05:10:31;4.23;;;2.10;;
4957;SDS011;2494;51.872;9.688;2023-09-19T05:13:16;4.33;;;2.43;;
4957;SDS011;2494;51.872;9.688;2023-09-19T05:16:01;6.27;;;2.07;;
4957;SDS011;2494;51.872;9.688;2023-09-19T05:18:46;10.20;;;2.83;;
4957;SDS011;2494;51.872;9.688;2023-09-19T05:21:31;7.03;;;2.83;;
4957;SDS011;2494;51.872;9.688;2023-09-19T05:24:18;9.17;;;2.93;;
4957;SDS011;2494;51.872;9.688;2023-09-19T05:27:03;4.60;;;2.20;;
4957;SDS011;2494;51.872;9.688;2023-09-19T05:29:51;8.97;;;2.67;;
4957;SDS011;2494;51.872;9.688;2023-09-19T05:32:37;4.87;;;2.10;;
4957;SDS011;2494;51.872;9.688;2023-09-19T05:35:22;10.73;;;2.50;;
4957;SDS011;2494;51.872;9.688;2023-09-19T05:38:08;4.70;;;2.50;;
4957;SDS011;2494;51.872;9.688;2023-09-19T05:40:55;9.30;;;2.17;;
4957;SDS011;2494;51.872;9.688;2023-09-19T05:43:40;4.00;;;2.13;;
4957;SDS011;2494;51.872;9.688;2023-09-19T05:46:25;4.27;;;2.43;;
4957;SDS011;2494;51.872;9.688;2023-09-19T05:49:13;4.53;;;2.07;;
4957;SDS011;2494;51.872;9.688;2023-09-19T05:51:59;3.97;;;1.80;;
4957;SDS011;2494;51.872;9.688;2023-09-19T05:54:44;6.93;;;2.30;;
4957;SDS011;2494;51.872;9.688;2023-09-19T05:57:31;6.13;;;2.60;;
4957;SDS011;2494;51.872;9.688;2023-09-19T06:00:16;5.50;;;2.10;;
4957;SDS011;2494;51.872;9.688;2023-09-19T06:03:02;6.73;;;2.13;;
4957;SDS011;2494;51.872;9.688;2023-09-19T06:05:47;10.37;;;2.63;;
4957;SDS011;2494;51.872;9.688;2023-09-19T06:08:33;3.53;;;1.90;;
4957;SDS011;2494;51.872;9.688;2023-09-19T06:11:18;5.93;;;2.00;;
4957;SDS011;2494;51.872;9.688;2023-09-19T06:14:05;5.27;;;2.33;;
4957;SDS011;2494;51.872;9.688;2023-09-19T06:16:50;5.80;;;1.97;;
4957;SDS011;2494;51.872;9.688;2023-09-19T06:19:37;4.33;;;2.03;;
4957;SDS011;2494;51.872;9.688;2023-09-19T06:22:23;6.30;;;1.80;;
4957;SDS011;2494;51.872;9.688;2023-09-19T06:25:08;5.87;;;1.73;;
4957;SDS011;2494;51.872;9.688;2023-09-19T06:27:55;10.10;;;2.20;;
4957;SDS011;2494;51.872;9.688;2023-09-19T06:30:42;3.00;;;1.87;;
4957;SDS011;2494;51.872;9.688;2023-09-19T06:33:27;7.17;;;2.13;;
4957;SDS011;2494;51.872;9.688;2023-09-19T06:36:14;7.80;;;2.87;;
4957;SDS011;2494;51.872;9.688;2023-09-19T06:38:59;2.70;;;1.87;;
4957;SDS011;2494;51.872;9.688;2023-09-19T06:41:44;6.57;;;2.83;;
4957;SDS011;2494;51.872;9.688;2023-09-19T06:44:29;5.53;;;1.90;;
4957;SDS011;2494;51.872;9.688;2023-09-19T06:47:17;4.93;;;1.77;;
4957;SDS011;2494;51.872;9.688;2023-09-19T06:50:02;6.43;;;2.33;;
4957;SDS011;2494;51.872;9.688;2023-09-19T06:52:49;3.43;;;1.83;;
4957;SDS011;2494;51.872;9.688;2023-09-19T06:55:35;6.70;;;2.10;;
4957;SDS011;2494;51.872;9.688;2023-09-19T06:58:20;4.37;;;1.80;;
4957;SDS011;2494;51.872;9.688;2023-09-19T07:01:04;3.90;;;2.30;;
4957;SDS011;2494;51.872;9.688;2023-09-19T07:03:51;6.70;;;2.23;;
4957;SDS011;2494;51.872;9.688;2023-09-19T07:06:37;4.33;;;1.80;;
4957;SDS011;2494;51.872;9.688;2023-09-19T07:09:22;4.40;;;1.90;;
4957;SDS011;2494;51.872;9.688;2023-09-19T07:12:07;6.50;;;1.60;;
4957;SDS011;2494;51.872;9.688;2023-09-19T07:14:52;5.97;;;2.00;;
4957;SDS011;2494;51.872;9.688;2023-09-19T07:17:37;3.23;;;1.70;;
4957;SDS011;2494;51.872;9.688;2023-09-19T07:20:23;3.20;;;1.67;;
4957;SDS011;2494;51.872;9.688;2023-09-19T07:23:10;6.57;;;2.10;;
4957;SDS011;2494;51.872;9.688;2023-09-19T07:25:56;6.03;;;2.23;;
4957;SDS011;2494;51.872;9.688;2023-09-19T07:28:41;8.20;;;2.10;;
4957;SDS011;2494;51.872;9.688;2023-09-19T07:31:26;8.53;;;2.00;;
4957;SDS011;2494;51.872;9.688;2023-09-19T07:34:12;5.70;;;1.63;;
4957;SDS011;2494;51.872;9.688;2023-09-19T07:37:00;5.53;;;1.67;;
4957;SDS011;2494;51.872;9.688;2023-09-19T07:39:46;5.80;;;1.80;;
4957;SDS011;2494;51.872;9.688;2023-09-19T07:42:31;6.00;;;2.13;;
4957;SDS011;2494;51.872;9.688;2023-09-19T07:45:16;3.90;;;1.83;;
4957;SDS011;2494;51.872;9.688;2023-09-19T07:48:02;5.30;;;2.03;;
4957;SDS011;2494;51.872;9.688;2023-09-19T07:50:55;5.30;;;1.70;;
4957;SDS011;2494;51.872;9.688;2023-09-19T07:53:42;3.83;;;2.00;;
4957;SDS011;2494;51.872;9.688;2023-09-19T07:56:27;4.83;;;1.87;;
4957;SDS011;2494;51.872;9.688;2023-09-19T07:59:12;4.10;;;1.80;;
4957;SDS011;2494;51.872;9.688;2023-09-19T08:01:57;6.80;;;2.13;;
4957;SDS011;2494;51.872;9.688;2023-09-19T08:04:43;7.03;;;1.93;;
4957;SDS011;2494;51.872;9.688;2023-09-19T08:07:30;4.90;;;1.70;;
4957;SDS011;2494;51.872;9.688;2023-09-19T08:10:16;5.63;;;1.50;;
4957;SDS011;2494;51.872;9.688;2023-09-19T08:13:03;5.67;;;1.80;;
4957;SDS011;2494;51.872;9.688;2023-09-19T08:15:50;8.27;;;2.00;;
4957;SDS011;2494;51.872;9.688;2023-09-19T08:18:36;7.50;;;1.73;;
4957;SDS011;2494;51.872;9.688;2023-09-19T08:21:23;7.30;;;1.93;;
4957;SDS011;2494;51.872;9.688;2023-09-19T08:24:09;6.57;;;2.43;;
4957;SDS011;2494;51.872;9.688;2023-09-19T08:26:56;4.90;;;1.80;;
4957;SDS011;2494;51.872;9.688;2023-09-19T08:29:41;4.00;;;1.97;;
4957;SDS011;2494;51.872;9.688;2023-09-19T08:32:26;4.97;;;2.00;;
4957;SDS011;2494;51.872;9.688;2023-09-19T08:35:11;4.67;;;1.57;;
4957;SDS011;2494;51.872;9.688;2023-09-19T08:37:56;2.87;;;1.80;;
4957;SDS011;2494;51.872;9.688;2023-09-19T08:40:41;3.97;;;1.63;;
4957;SDS011;2494;51.872;9.688;2023-09-19T08:43:29;3.70;;;1.70;;
4957;SDS011;2494;51.872;9.688;2023-09-19T08:46:14;4.40;;;1.87;;
4957;SDS011;2494;51.872;9.688;2023-09-19T08:49:03;7.93;;;1.87;;
4957;SDS011;2494;51.872;9.688;2023-09-19T08:51:48;3.10;;;1.50;;
4957;SDS011;2494;51.872;9.688;2023-09-19T08:54:37;3.53;;;1.80;;
4957;SDS011;2494;51.872;9.688;2023-09-19T08:57:23;6.60;;;1.87;;
4957;SDS011;2494;51.872;9.688;2023-09-19T09:00:10;4.00;;;1.70;;
4957;SDS011;2494;51.872;9.688;2023-09-19T09:02:58;3.17;;;1.77;;
4957;SDS011;2494;51.872;9.688;2023-09-19T09:05:46;5.30;;;2.33;;
4957;SDS011;2494;51.872;9.688;2023-09-19T09:08:31;3.80;;;2.00;;
4957;SDS011;2494;51.872;9.688;2023-09-19T09:11:16;4.93;;;1.90;;
4957;SDS011;2494;51.872;9.688;2023-09-19T09:14:01;2.00;;;1.70;;
4957;SDS011;2494;51.872;9.688;2023-09-19T09:16:47;8.93;;;1.90;;
4957;SDS011;2494;51.872;9.688;2023-09-19T09:19:33;5.47;;;2.37;;
4957;SDS011;2494;51.872;9.688;2023-09-19T09:22:18;5.20;;;2.10;;
4957;SDS011;2494;51.872;9.688;2023-09-19T09:25:04;3.13;;;2.30;;
4957;SDS011;2494;51.872;9.688;2023-09-19T09:27:59;5.70;;;2.27;;
4957;SDS011;2494;51.872;9.688;2023-09-19T09:30:45;4.70;;;2.00;;
4957;SDS011;2494;51.872;9.688;2023-09-19T09:33:32;3.17;;;2.20;;
4957;SDS011;2494;51.872;9.688;2023-09-19T09:36:17;4.63;;;2.13;;
4957;SDS011;2494;51.872;9.688;2023-09-19T09:39:28;5.73;;;1.80;;
4957;SDS011;2494;51.872;9.688;2023-09-19T09:42:16;7.50;;;2.57;;
4957;SDS011;2494;51.872;9.688;2023-09-19T09:45:15;2.60;;;2.03;;
4957;SDS011;2494;51.872;9.688;2023-09-19T09:48:01;4.10;;;2.23;;
4957;SDS011;2494;51.872;9.688;2023-09-19T09:50:48;5.30;;;2.03;;
4957;SDS011;2494;51.872;9.688;2023-09-19T09:53:39;3.67;;;1.50;;
4957;SDS011;2494;51.872;9.688;2023-09-19T09:56:25;3.80;;;2.17;;
4957;SDS011;2494;51.872;9.688;2023-09-19T09:59:10;3.37;;;2.10;;
4957;SDS011;2494;51.872;9.688;2023-09-19T10:02:01;5.20;;;2.03;;
4957;SDS011;2494;51.872;9.688;2023-09-19T10:04:50;5.30;;;1.80;;
4957;SDS011;2494;51.872;9.688;2023-09-19T10:08:11;7.03;;;2.20;;
4957;SDS011;2494;51.872;9.688;2023-09-19T10:10:59;7.40;;;2.77;;
4957;SDS011;2494;51.872;9.688;2023-09-19T10:13:49;6.60;;;2.60;;
4957;SDS011;2494;51.872;9.688;2023-09-19T10:16:34;4.50;;;2.23;;
4957;SDS011;2494;51.872;9.688;2023-09-19T10:19:23;4.10;;;2.63;;
4957;SDS011;2494;51.872;9.688;2023-09-19T10:22:10;7.93;;;3.17;;
4957;SDS011;2494;51.872;9.688;2023-09-19T10:24:57;9.20;;;2.83;;
4957;SDS011;2494;51.872;9.688;2023-09-19T10:27:44;8.00;;;2.60;;
4957;SDS011;2494;51.872;9.688;2023-09-19T10:30:29;8.67;;;3.00;;
4957;SDS011;2494;51.872;9.688;2023-09-19T10:33:16;5.93;;;2.10;;
4957;SDS011;2494;51.872;9.688;2023-09-19T10:36:01;4.93;;;2.40;;
4957;SDS011;2494;51.872;9.688;2023-09-19T10:38:50;6.77;;;2.10;;
4957;SDS011;2494;51.872;9.688;2023-09-19T10:41:38;9.73;;;2.53;;
4957;SDS011;2494;51.872;9.688;2023-09-19T10:44:24;7.23;;;2.43;;
4957;SDS011;2494;51.872;9.688;2023-09-19T10:47:10;6.30;;;2.23;;
4957;SDS011;2494;51.872;9.688;2023-09-19T10:49:55;5.30;;;2.47;;
4957;SDS011;2494;51.872;9.688;2023-09-19T10:52:40;6.77;;;3.00;;
4957;SDS011;2494;51.872;9.688;2023-09-19T10:55:26;4.17;;;1.90;;
4957;SDS011;2494;51.872;9.688;2023-09-19T10:58:14;5.30;;;2.10;;
4957;SDS011;2494;51.872;9.688;2023-09-19T11:01:09;5.73;;;2.43;;
4957;SDS011;2494;51.872;9.688;2023-09-19T11:06:59;4.83;;;2.10;;
4957;SDS011;2494;51.872;9.688;2023-09-19T11:09:47;8.10;;;2.17;;
4957;SDS011;2494;51.872;9.688;2023-09-19T11:12:49;3.40;;;2.20;;
4957;SDS011;2494;51.872;9.688;2023-09-19T11:18:52;4.53;;;1.93;;
4957;SDS011;2494;51.872;9.688;2023-09-19T11:21:50;11.10;;;2.87;;
4957;SDS011;2494;51.872;9.688;2023-09-19T11:24:38;6.57;;;2.40;;
4957;SDS011;2494;51.872;9.688;2023-09-19T11:27:23;2.57;;;1.90;;
4957;SDS011;2494;51.872;9.688;2023-09-19T11:30:26;4.10;;;2.07;;
4957;SDS011;2494;51.872;9.688;2023-09-19T11:33:17;4.97;;;1.90;;
4957;SDS011;2494;51.872;9.688;2023-09-19T11:36:06;8.40;;;1.80;;
4957;SDS011;2494;51.872;9.688;2023-09-19T11:38:58;5.10;;;2.37;;
4957;SDS011;2494;51.872;9.688;2023-09-19T11:41:51;4.30;;;1.80;;
4957;SDS011;2494;51.872;9.688;2023-09-19T11:44:41;4.27;;;1.90;;
4957;SDS011;2494;51.872;9.688;2023-09-19T11:47:27;2.70;;;1.87;;
4957;SDS011;2494;51.872;9.688;2023-09-19T11:50:16;2.93;;;1.70;;
4957;SDS011;2494;51.872;9.688;2023-09-19T11:53:05;7.43;;;2.00;;
4957;SDS011;2494;51.872;9.688;2023-09-19T11:55:50;5.43;;;2.03;;
4957;SDS011;2494;51.872;9.688;2023-09-19T11:58:37;6.83;;;2.30;;
4957;SDS011;2494;51.872;9.688;2023-09-19T12:01:23;5.00;;;1.90;;
4957;SDS011;2494;51.872;9.688;2023-09-19T12:04:11;4.70;;;2.20;;
4957;SDS011;2494;51.872;9.688;2023-09-19T12:06:58;4.90;;;2.23;;
4957;SDS011;2494;51.872;9.688;2023-09-19T12:09:46;5.27;;;2.00;;
4957;SDS011;2494;51.872;9.688;2023-09-19T12:12:32;2.23;;;1.90;;
4957;SDS011;2494;51.872;9.688;2023-09-19T12:15:22;7.33;;;2.50;;
4957;SDS011;2494;51.872;9.688;2023-09-19T12:18:08;5.07;;;2.30;;
4957;SDS011;2494;51.872;9.688;2023-09-19T12:20:53;4.53;;;2.20;;
4957;SDS011;2494;51.872;9.688;2023-09-19T12:23:39;7.57;;;2.30;;
4957;SDS011;2494;51.872;9.688;2023-09-19T12:26:27;2.63;;;2.30;;
4957;SDS011;2494;51.872;9.688;2023-09-19T12:29:14;11.70;;;3.00;;
4957;SDS011;2494;51.872;9.688;2023-09-19T12:32:01;7.67;;;2.23;;
4957;SDS011;2494;51.872;9.688;2023-09-19T12:34:52;4.07;;;2.07;;
4957;SDS011;2494;51.872;9.688;2023-09-19T12:37:42;7.10;;;2.20;;
4957;SDS011;2494;51.872;9.688;2023-09-19T12:40:32;5.10;;;2.73;;
4957;SDS011;2494;51.872;9.688;2023-09-19T12:43:21;3.20;;;2.00;;
4957;SDS011;2494;51.872;9.688;2023-09-19T12:46:06;6.23;;;2.10;;
4957;SDS011;2494;51.872;9.688;2023-09-19T12:51:51;4.07;;;2.40;;
4957;SDS011;2494;51.872;9.688;2023-09-19T12:54:42;3.07;;;2.10;;
4957;SDS011;2494;51.872;9.688;2023-09-19T12:57:29;3.30;;;2.17;;
4957;SDS011;2494;51.872;9.688;2023-09-19T13:00:17;2.80;;;1.87;;
4957;SDS011;2494;51.872;9.688;2023-09-19T13:03:16;5.00;;;1.97;;
4957;SDS011;2494;51.872;9.688;2023-09-19T13:06:05;5.13;;;2.50;;
4957;SDS011;2494;51.872;9.688;2023-09-19T13:09:07;5.73;;;2.43;;
4957;SDS011;2494;51.872;9.688;2023-09-19T13:11:52;4.10;;;2.10;;
4957;SDS011;2494;51.872;9.688;2023-09-19T13:14:37;2.83;;;2.00;;
4957;SDS011;2494;51.872;9.688;2023-09-19T13:17:26;6.27;;;2.17;;
4957;SDS011;2494;51.872;9.688;2023-09-19T13:20:27;3.17;;;2.63;;
4957;SDS011;2494;51.872;9.688;2023-09-19T13:23:25;3.63;;;2.10;;
4957;SDS011;2494;51.872;9.688;2023-09-19T13:26:10;3.63;;;2.20;;
4957;SDS011;2494;51.872;9.688;2023-09-19T13:28:55;4.00;;;2.10;;
4957;SDS011;2494;51.872;9.688;2023-09-19T13:31:40;4.17;;;2.13;;
4957;SDS011;2494;51.872;9.688;2023-09-19T13:34:26;3.33;;;2.33;;
4957;SDS011;2494;51.872;9.688;2023-09-19T13:37:13;5.47;;;2.00;;
4957;SDS011;2494;51.872;9.688;2023-09-19T13:40:00;7.97;;;2.37;;
4957;SDS011;2494;51.872;9.688;2023-09-19T13:42:45;3.23;;;2.00;;
4957;SDS011;2494;51.872;9.688;2023-09-19T13:45:30;3.30;;;2.00;;
4957;SDS011;2494;51.872;9.688;2023-09-19T13:48:15;3.50;;;2.13;;
4957;SDS011;2494;51.872;9.688;2023-09-19T13:51:05;2.90;;;1.90;;
4957;SDS011;2494;51.872;9.688;2023-09-19T13:53:50;7.33;;;2.50;;
4957;SDS011;2494;51.872;9.688;2023-09-19T13:56:35;4.70;;;2.00;;
4957;SDS011;2494;51.872;9.688;2023-09-19T13:59:21;7.40;;;2.20;;
4957;SDS011;2494;51.872;9.688;2023-09-19T14:02:07;3.03;;;1.73;;
4957;SDS011;2494;51.872;9.688;2023-09-19T14:04:52;2.87;;;1.80;;
4957;SDS011;2494;51.872;9.688;2023-09-19T14:07:38;4.20;;;1.80;;
4957;SDS011;2494;51.872;9.688;2023-09-19T14:10:24;3.47;;;2.03;;
4957;SDS011;2494;51.872;9.688;2023-09-19T14:13:11;2.90;;;1.97;;
4957;SDS011;2494;51.872;9.688;2023-09-19T14:15:57;3.00;;;1.70;;
4957;SDS011;2494;51.872;9.688;2023-09-19T14:18:42;3.73;;;2.33;;
4957;SDS011;2494;51.872;9.688;2023-09-19T14:21:29;4.37;;;1.90;;
4957;SDS011;2494;51.872;9.688;2023-09-19T14:24:17;3.77;;;1.80;;
4957;SDS011;2494;51.872;9.688;2023-09-19T14:27:02;5.73;;;1.60;;
4957;SDS011;2494;51.872;9.688;2023-09-19T14:29:49;2.90;;;1.57;;
4957;SDS011;2494;51.872;9.688;2023-09-19T14:32:35;2.37;;;1.87;;
4957;SDS011;2494;51.872;9.688;2023-09-19T14:35:21;4.77;;;2.03;;
4957;SDS011;2494;51.872;9.688;2023-09-19T14:38:06;5.37;;;1.70;;
4957;SDS011;2494;51.872;9.688;2023-09-19T14:41:00;3.23;;;2.03;;
4957;SDS011;2494;51.872;9.688;2023-09-19T14:43:45;4.90;;;2.77;;
4957;SDS011;2494;51.872;9.688;2023-09-19T14:46:30;3.70;;;2.23;;
4957;SDS011;2494;51.872;9.688;2023-09-19T14:49:15;4.90;;;2.10;;
4957;SDS011;2494;51.872;9.688;2023-09-19T14:52:00;2.23;;;1.63;;
4957;SDS011;2494;51.872;9.688;2023-09-19T14:54:47;2.53;;;1.50;;
4957;SDS011;2494;51.872;9.688;2023-09-19T14:57:33;4.03;;;1.90;;
4957;SDS011;2494;51.872;9.688;2023-09-19T15:00:18;4.30;;;1.60;;
4957;SDS011;2494;51.872;9.688;2023-09-19T15:03:05;2.07;;;1.73;;
4957;SDS011;2494;51.872;9.688;2023-09-19T15:05:50;3.77;;;1.80;;
4957;SDS011;2494;51.872;9.688;2023-09-19T15:08:36;3.10;;;2.00;;
4957;SDS011;2494;51.872;9.688;2023-09-19T15:11:22;4.40;;;1.67;;
4957;SDS011;2494;51.872;9.688;2023-09-19T15:14:08;3.17;;;1.80;;
4957;SDS011;2494;51.872;9.688;2023-09-19T15:16:53;4.67;;;1.67;;
4957;SDS011;2494;51.872;9.688;2023-09-19T15:19:38;3.10;;;1.50;;
4957;SDS011;2494;51.872;9.688;2023-09-19T15:22:22;1.60;;;1.40;;
4957;SDS011;2494;51.872;9.688;2023-09-19T15:25:08;2.00;;;1.77;;
4957;SDS011;2494;51.872;9.688;2023-09-19T15:27:54;3.10;;;1.70;;
4957;SDS011;2494;51.872;9.688;2023-09-19T15:30:40;3.53;;;1.80;;
4957;SDS011;2494;51.872;9.688;2023-09-19T15:33:25;3.10;;;1.90;;
4957;SDS011;2494;51.872;9.688;2023-09-19T15:36:11;3.07;;;1.70;;
4957;SDS011;2494;51.872;9.688;2023-09-19T15:38:57;2.73;;;1.60;;
4957;SDS011;2494;51.872;9.688;2023-09-19T15:41:44;4.10;;;1.90;;
4957;SDS011;2494;51.872;9.688;2023-09-19T15:44:30;3.93;;;1.63;;
4957;SDS011;2494;51.872;9.688;2023-09-19T15:47:17;4.43;;;2.20;;
4957;SDS011;2494;51.872;9.688;2023-09-19T15:50:04;3.07;;;1.60;;
4957;SDS011;2494;51.872;9.688;2023-09-19T15:52:52;4.63;;;2.17;;
4957;SDS011;2494;51.872;9.688;2023-09-19T15:55:38;3.30;;;1.50;;
4957;SDS011;2494;51.872;9.688;2023-09-19T15:58:23;6.70;;;2.00;;
4957;SDS011;2494;51.872;9.688;2023-09-19T16:01:08;4.37;;;1.60;;
4957;SDS011;2494;51.872;9.688;2023-09-19T16:03:55;3.40;;;1.63;;
4957;SDS011;2494;51.872;9.688;2023-09-19T16:06:40;2.60;;;2.00;;
4957;SDS011;2494;51.872;9.688;2023-09-19T16:09:25;5.80;;;1.93;;
4957;SDS011;2494;51.872;9.688;2023-09-19T16:12:10;3.53;;;1.43;;
4957;SDS011;2494;51.872;9.688;2023-09-19T16:14:58;3.40;;;2.10;;
4957;SDS011;2494;51.872;9.688;2023-09-19T16:17:43;3.07;;;1.63;;
4957;SDS011;2494;51.872;9.688;2023-09-19T16:20:29;2.47;;;1.83;;
4957;SDS011;2494;51.872;9.688;2023-09-19T16:23:17;2.67;;;1.90;;
4957;SDS011;2494;51.872;9.688;2023-09-19T16:26:02;3.13;;;1.60;;
4957;SDS011;2494;51.872;9.688;2023-09-19T16:28:49;6.20;;;1.70;;
4957;SDS011;2494;51.872;9.688;2023-09-19T16:31:35;4.93;;;2.00;;
4957;SDS011;2494;51.872;9.688;2023-09-19T16:34:20;9.50;;;2.03;;
4957;SDS011;2494;51.872;9.688;2023-09-19T16:37:06;4.30;;;2.27;;
4957;SDS011;2494;51.872;9.688;2023-09-19T16:39:51;3.43;;;2.00;;
4957;SDS011;2494;51.872;9.688;2023-09-19T16:42:36;3.10;;;1.87;;
4957;SDS011;2494;51.872;9.688;2023-09-19T16:45:22;5.63;;;1.90;;
4957;SDS011;2494;51.872;9.688;2023-09-19T16:48:07;4.20;;;2.00;;
4957;SDS011;2494;51.872;9.688;2023-09-19T16:50:52;2.50;;;1.30;;
4957;SDS011;2494;51.872;9.688;2023-09-19T16:53:39;2.83;;;1.87;;
4957;SDS011;2494;51.872;9.688;2023-09-19T16:56:25;3.50;;;1.73;;
4957;SDS011;2494;51.872;9.688;2023-09-19T16:59:10;4.50;;;1.63;;
4957;SDS011;2494;51.872;9.688;2023-09-19T17:01:55;2.40;;;1.87;;
4957;SDS011;2494;51.872;9.688;2023-09-19T17:04:42;2.13;;;1.70;;
4957;SDS011;2494;51.872;9.688;2023-09-19T17:07:27;4.33;;;1.80;;
4957;SDS011;2494;51.872;9.688;2023-09-19T17:10:14;3.43;;;1.60;;
4957;SDS011;2494;51.872;9.688;2023-09-19T17:13:00;2.03;;;1.70;;
4957;SDS011;2494;51.872;9.688;2023-09-19T17:15:44;1.90;;;1.80;;
4957;SDS011;2494;51.872;9.688;2023-09-19T17:18:30;3.33;;;1.67;;
4957;SDS011;2494;51.872;9.688;2023-09-19T17:21:16;4.00;;;1.47;;
4957;SDS011;2494;51.872;9.688;2023-09-19T17:24:01;3.30;;;1.80;;
4957;SDS011;2494;51.872;9.688;2023-09-19T17:26:50;6.00;;;1.93;;
4957;SDS011;2494;51.872;9.688;2023-09-19T17:29:35;3.50;;;1.87;;
4957;SDS011;2494;51.872;9.688;2023-09-19T17:32:20;5.23;;;2.17;;